createdAt,value
2023-01-29T00:02:42.833Z,-3.67
2023-01-29T00:05:28.753Z,-3.66
2023-01-29T00:08:13.409Z,-3.59
2023-01-29T00:10:58.079Z,-3.54
2023-01-29T00:13:43.101Z,-3.53
2023-01-29T00:16:28.547Z,-3.60
2023-01-29T00:19:13.746Z,-3.69
2023-01-29T00:21:58.457Z,-3.65
2023-01-29T00:24:43.478Z,-3.66
2023-01-29T00:27:28.279Z,-3.49
2023-01-29T00:30:13.053Z,-3.41
2023-01-29T00:32:58.108Z,-3.41
2023-01-29T00:35:42.845Z,-3.50
2023-01-29T00:38:27.576Z,-3.61
2023-01-29T00:41:12.361Z,-3.58
2023-01-29T00:43:57.355Z,-3.67
2023-01-29T00:46:42.308Z,-3.66
2023-01-29T00:49:27.126Z,-3.74
2023-01-29T00:52:12.012Z,-3.81
2023-01-29T00:54:56.831Z,-3.72
2023-01-29T00:57:41.628Z,-3.73
2023-01-29T01:00:26.633Z,-3.91
2023-01-29T01:03:11.301Z,-3.98
2023-01-29T01:05:56.038Z,-3.82
2023-01-29T01:08:40.808Z,-3.78
2023-01-29T01:11:25.590Z,-3.79
2023-01-29T01:14:10.537Z,-3.68
2023-01-29T01:16:56.411Z,-3.56
2023-01-29T01:19:41.135Z,-3.46
2023-01-29T01:22:25.864Z,-3.42
2023-01-29T01:25:10.721Z,-3.41
2023-01-29T01:27:55.409Z,-3.47
2023-01-29T01:30:40.212Z,-3.57
2023-01-29T01:33:24.768Z,-3.59
2023-01-29T01:36:09.604Z,-3.61
2023-01-29T01:38:54.424Z,-3.62
2023-01-29T01:41:39.139Z,-3.53
2023-01-29T01:44:24.014Z,-3.54
2023-01-29T01:47:08.595Z,-3.59
2023-01-29T01:49:53.439Z,-3.62
2023-01-29T01:52:38.200Z,-3.68
2023-01-29T01:55:23.096Z,-3.71
2023-01-29T01:58:07.842Z,-3.65
2023-01-29T02:00:52.573Z,-3.64
2023-01-29T02:03:37.400Z,-3.67
2023-01-29T02:06:22.122Z,-3.68
2023-01-29T02:09:07.048Z,-3.66
2023-01-29T02:11:51.816Z,-3.63
2023-01-29T02:14:36.690Z,-3.68
2023-01-29T02:17:21.383Z,-3.75
2023-01-29T02:20:06.213Z,-3.71
2023-01-29T02:22:50.856Z,-3.72
2023-01-29T02:25:35.623Z,-3.73
2023-01-29T02:28:20.447Z,-3.75
2023-01-29T02:31:05.233Z,-3.72
2023-01-29T02:33:50.619Z,-3.72
2023-01-29T02:36:35.422Z,-3.70
2023-01-29T02:39:20.247Z,-3.75
2023-01-29T02:42:04.905Z,-3.86
2023-01-29T02:44:49.678Z,-3.93
2023-01-29T02:47:34.443Z,-3.98
2023-01-29T02:50:19.407Z,-4.10
2023-01-29T02:53:04.467Z,-4.11
2023-01-29T02:55:49.273Z,-4.09
2023-01-29T02:58:34.012Z,-4.06
2023-01-29T03:01:18.880Z,-4.04
2023-01-29T03:04:03.635Z,-4.01
2023-01-29T03:06:48.277Z,-3.96
2023-01-29T03:09:33.171Z,-3.95
2023-01-29T03:12:19.726Z,-3.85
2023-01-29T03:15:05.148Z,-3.82
2023-01-29T03:17:49.899Z,-3.86
2023-01-29T03:20:34.638Z,-3.86
2023-01-29T03:23:19.466Z,-3.92
2023-01-29T03:26:04.035Z,-4.01
2023-01-29T03:28:48.819Z,-3.96
2023-01-29T03:31:33.697Z,-3.85
2023-01-29T03:34:18.977Z,-3.86
2023-01-29T03:37:03.745Z,-3.92
2023-01-29T03:39:48.494Z,-4.15
2023-01-29T03:42:33.196Z,-4.30
2023-01-29T03:45:18.084Z,-4.25
2023-01-29T03:48:02.828Z,-4.29
2023-01-29T03:50:47.616Z,-4.42
2023-01-29T03:53:32.489Z,-4.52
2023-01-29T03:56:17.316Z,-4.58
2023-01-29T03:59:01.974Z,-4.54
2023-01-29T04:01:46.679Z,-4.46
2023-01-29T04:04:31.415Z,-4.46
2023-01-29T04:07:16.158Z,-4.52
2023-01-29T04:10:00.987Z,-4.55
2023-01-29T04:12:45.757Z,-4.54
2023-01-29T04:15:30.585Z,-4.38
2023-01-29T04:18:15.363Z,-4.15
2023-01-29T04:21:00.177Z,-4.06
2023-01-29T04:23:45.161Z,-4.07
2023-01-29T04:26:29.932Z,-4.06
2023-01-29T04:29:14.798Z,-4.10
2023-01-29T04:31:59.447Z,-4.22
2023-01-29T04:34:44.330Z,-4.31
2023-01-29T04:37:29.091Z,-4.35
2023-01-29T04:40:13.876Z,-4.36
2023-01-29T04:42:58.857Z,-4.37
2023-01-29T04:45:43.798Z,-4.31
2023-01-29T04:48:28.671Z,-4.32
2023-01-29T04:51:13.326Z,-4.32
2023-01-29T04:53:58.213Z,-4.29
2023-01-29T04:56:42.949Z,-4.34
2023-01-29T04:59:27.837Z,-4.46
2023-01-29T05:02:12.471Z,-4.68
2023-01-29T05:04:57.325Z,-4.64
2023-01-29T05:07:42.036Z,-4.66
2023-01-29T05:10:26.914Z,-4.72
2023-01-29T05:13:11.539Z,-4.75
2023-01-29T05:15:56.268Z,-4.78
2023-01-29T05:18:41.106Z,-4.66
2023-01-29T05:21:25.823Z,-4.59
2023-01-29T05:24:10.731Z,-4.58
2023-01-29T05:26:55.472Z,-4.61
2023-01-29T05:29:40.412Z,-4.59
2023-01-29T05:32:25.062Z,-4.52
2023-01-29T05:35:09.713Z,-4.48
2023-01-29T05:37:54.396Z,-4.40
2023-01-29T05:40:39.184Z,-4.34
2023-01-29T05:43:23.878Z,-4.27
2023-01-29T05:46:08.627Z,-4.25
2023-01-29T05:48:53.466Z,-4.21
2023-01-29T05:51:38.350Z,-4.25
2023-01-29T05:54:23.224Z,-4.24
2023-01-29T05:57:07.896Z,-4.29
2023-01-29T05:59:52.718Z,-4.35
2023-01-29T06:02:37.490Z,-4.35
2023-01-29T06:05:22.190Z,-4.40
2023-01-29T06:08:06.873Z,-4.39
2023-01-29T06:10:51.675Z,-4.43
2023-01-29T06:13:36.356Z,-4.55
2023-01-29T06:16:21.223Z,-4.47
2023-01-29T06:19:05.964Z,-4.43
2023-01-29T06:21:50.744Z,-4.39
2023-01-29T06:24:35.556Z,-4.28
2023-01-29T06:27:20.335Z,-4.19
2023-01-29T06:30:05.074Z,-4.07
2023-01-29T06:32:49.932Z,-4.12
2023-01-29T06:35:34.770Z,-4.12
2023-01-29T06:38:19.563Z,-4.20
2023-01-29T06:41:04.315Z,-4.31
2023-01-29T06:43:49.037Z,-4.37
2023-01-29T06:46:33.915Z,-4.48
2023-01-29T06:49:19.009Z,-4.48
2023-01-29T06:52:03.997Z,-4.51
2023-01-29T06:54:48.792Z,-4.51
2023-01-29T06:57:33.358Z,-4.66
2023-01-29T07:00:18.508Z,-4.66
2023-01-29T07:03:03.237Z,-4.59
2023-01-29T07:05:47.947Z,-4.52
2023-01-29T07:08:32.657Z,-4.55
2023-01-29T07:11:17.493Z,-4.48
2023-01-29T07:14:02.233Z,-4.57
2023-01-29T07:16:46.893Z,-4.76
2023-01-29T07:19:31.757Z,-4.85
2023-01-29T07:22:16.566Z,-4.94
2023-01-29T07:25:01.523Z,-4.87
2023-01-29T07:27:46.065Z,-4.71
2023-01-29T07:30:30.768Z,-4.74
2023-01-29T07:33:15.546Z,-4.85
2023-01-29T07:36:00.425Z,-4.86
2023-01-29T07:38:45.191Z,-4.70
2023-01-29T07:41:29.938Z,-4.56
2023-01-29T07:44:14.689Z,-4.46
2023-01-29T07:46:59.604Z,-4.40
2023-01-29T07:49:44.474Z,-4.38
2023-01-29T07:52:29.124Z,-4.32
2023-01-29T07:55:13.908Z,-4.00
2023-01-29T07:57:58.613Z,-3.93
2023-01-29T08:00:43.452Z,-3.86
2023-01-29T08:03:28.225Z,-3.71
2023-01-29T08:06:12.976Z,-3.53
2023-01-29T08:08:57.697Z,-3.41
2023-01-29T08:11:42.625Z,-3.34
2023-01-29T08:14:27.393Z,-3.41
2023-01-29T08:17:12.085Z,-3.45
2023-01-29T08:19:56.828Z,-3.46
2023-01-29T08:22:41.487Z,-3.42
2023-01-29T08:25:26.763Z,-3.28
2023-01-29T08:28:11.585Z,-3.03
2023-01-29T08:30:56.600Z,-2.79
2023-01-29T08:33:41.777Z,-2.60
2023-01-29T08:36:26.455Z,-2.41
2023-01-29T08:39:11.194Z,-2.50
2023-01-29T08:41:56.027Z,-2.51
2023-01-29T08:44:40.792Z,-2.58
2023-01-29T08:47:25.735Z,-2.53
2023-01-29T08:50:11.294Z,-2.70
2023-01-29T08:52:55.911Z,-2.68
2023-01-29T08:55:40.822Z,-2.58
2023-01-29T08:58:26.057Z,-2.29
2023-01-29T09:01:10.793Z,-1.98
2023-01-29T09:03:55.451Z,-1.70
2023-01-29T09:06:40.218Z,-1.32
2023-01-29T09:09:24.984Z,-1.06
2023-01-29T09:12:09.703Z,-0.78
2023-01-29T09:14:54.518Z,-0.59
2023-01-29T09:17:39.214Z,-0.33
2023-01-29T09:20:24.176Z,-0.14
2023-01-29T09:23:09.195Z,-0.03
2023-01-29T09:25:53.977Z,0.17
2023-01-29T09:28:38.658Z,0.17
2023-01-29T09:31:23.485Z,0.22
2023-01-29T09:34:08.593Z,0.37
2023-01-29T09:36:53.389Z,0.43
2023-01-29T09:39:38.213Z,-0.05
2023-01-29T09:42:23.009Z,-0.32
2023-01-29T09:45:07.856Z,-0.58
2023-01-29T09:47:52.481Z,-0.58
2023-01-29T09:50:37.377Z,-0.41
2023-01-29T09:53:22.081Z,-0.18
2023-01-29T09:56:06.896Z,-0.26
2023-01-29T09:58:51.542Z,-0.19
2023-01-29T10:01:36.310Z,-0.06
2023-01-29T10:04:21.478Z,0.09
2023-01-29T10:07:06.169Z,0.31
2023-01-29T10:09:50.993Z,0.36
2023-01-29T10:12:35.699Z,0.38
2023-01-29T10:15:20.519Z,0.25
2023-01-29T10:18:05.318Z,0.05
2023-01-29T10:20:49.973Z,0.04
2023-01-29T10:23:34.965Z,0.04
2023-01-29T10:26:20.057Z,0.18
2023-01-29T10:29:04.661Z,0.30
2023-01-29T10:31:49.537Z,0.26
2023-01-29T10:34:34.644Z,0.13
2023-01-29T10:37:19.516Z,0.25
2023-01-29T10:40:04.309Z,0.25
2023-01-29T10:42:49.469Z,0.44
2023-01-29T10:45:34.587Z,0.49
2023-01-29T10:48:19.315Z,0.56
2023-01-29T10:51:04.079Z,0.71
2023-01-29T10:53:48.863Z,0.79
2023-01-29T10:56:33.652Z,0.74
2023-01-29T10:59:18.351Z,0.69
2023-01-29T11:02:03.177Z,0.68
2023-01-29T11:04:48.018Z,0.56
2023-01-29T11:07:32.734Z,0.20
2023-01-29T11:10:17.882Z,-0.03
2023-01-29T11:13:02.785Z,0.02
2023-01-29T11:15:47.620Z,0.08
2023-01-29T11:18:32.341Z,0.07
2023-01-29T11:21:17.026Z,0.07
2023-01-29T11:24:01.740Z,0.12
2023-01-29T11:26:46.546Z,0.32
2023-01-29T11:29:32.092Z,0.37
2023-01-29T11:32:17.070Z,0.44
2023-01-29T11:35:01.831Z,0.42
2023-01-29T11:37:46.796Z,0.62
2023-01-29T11:40:31.568Z,0.81
2023-01-29T11:43:16.284Z,1.01
2023-01-29T11:46:01.055Z,0.97
2023-01-29T11:48:45.897Z,0.80
2023-01-29T11:51:30.677Z,0.81
2023-01-29T11:54:15.604Z,1.00
2023-01-29T11:57:00.399Z,1.16
2023-01-29T11:59:45.255Z,1.20
2023-01-29T12:02:29.877Z,1.14
2023-01-29T12:05:14.693Z,1.13
2023-01-29T12:07:59.391Z,1.19
2023-01-29T12:10:44.231Z,1.25
2023-01-29T12:13:28.881Z,1.39
2023-01-29T12:16:13.603Z,1.50
2023-01-29T12:18:58.401Z,1.50
2023-01-29T12:21:43.134Z,1.57
2023-01-29T12:24:27.954Z,1.28
2023-01-29T12:27:12.774Z,0.99
2023-01-29T12:29:57.588Z,0.90
2023-01-29T12:32:42.363Z,0.80
2023-01-29T12:35:27.123Z,0.87
2023-01-29T12:38:11.889Z,0.92
2023-01-29T12:40:56.640Z,0.98
2023-01-29T12:43:41.414Z,0.97
2023-01-29T12:46:26.157Z,0.92
2023-01-29T12:49:10.808Z,1.02
2023-01-29T12:51:55.633Z,1.09
2023-01-29T12:54:40.341Z,1.06
2023-01-29T12:57:25.084Z,0.69
2023-01-29T13:00:09.915Z,0.45
2023-01-29T13:02:54.820Z,0.24
2023-01-29T13:05:39.478Z,0.10
2023-01-29T13:08:24.274Z,0.00
2023-01-29T13:11:09.001Z,-0.04
2023-01-29T13:13:54.369Z,-0.11
2023-01-29T13:16:39.609Z,-0.08
2023-01-29T13:19:24.777Z,-0.15
2023-01-29T13:22:09.633Z,-0.16
2023-01-29T13:25:04.000Z,-0.01
2023-01-29T13:27:49.685Z,0.05
2023-01-29T13:30:34.350Z,0.25
2023-01-29T13:33:19.250Z,0.44
2023-01-29T13:36:03.922Z,0.66
2023-01-29T13:38:48.763Z,0.83
2023-01-29T13:41:33.851Z,0.92
2023-01-29T13:44:18.838Z,1.01
2023-01-29T13:47:03.942Z,1.17
2023-01-29T13:49:48.717Z,1.05
2023-01-29T13:52:33.492Z,1.02
2023-01-29T13:55:18.484Z,1.07
2023-01-29T13:58:03.767Z,1.08
2023-01-29T14:00:48.528Z,0.98
2023-01-29T14:03:56.140Z,1.03
2023-01-29T14:06:38.354Z,1.08
2023-01-29T14:09:23.149Z,1.16
2023-01-29T14:12:08.498Z,1.15
2023-01-29T14:14:53.340Z,1.25
2023-01-29T14:17:37.973Z,1.33
2023-01-29T14:20:24.281Z,1.30
2023-01-29T14:23:10.569Z,1.40
2023-01-29T14:25:55.346Z,1.44
2023-01-29T14:28:40.035Z,1.38
2023-01-29T14:31:24.948Z,1.30
2023-01-29T14:34:09.650Z,1.18
2023-01-29T14:36:54.356Z,1.16
2023-01-29T14:39:39.239Z,1.07
2023-01-29T14:42:24.030Z,1.00
2023-01-29T14:45:08.822Z,0.90
2023-01-29T14:47:53.440Z,0.88
2023-01-29T14:50:38.445Z,0.79
2023-01-29T14:53:23.186Z,0.66
2023-01-29T14:56:07.917Z,0.63
2023-01-29T14:58:52.554Z,0.43
2023-01-29T15:01:37.415Z,0.29
2023-01-29T15:04:22.254Z,0.05
2023-01-29T15:07:07.029Z,0.00
2023-01-29T15:09:51.785Z,-0.14
2023-01-29T15:12:36.505Z,-0.28
2023-01-29T15:15:21.240Z,-0.52
2023-01-29T15:18:05.925Z,-0.77
2023-01-29T15:20:50.789Z,-0.91
2023-01-29T15:23:35.563Z,-0.95
2023-01-29T15:26:20.391Z,-0.98
2023-01-29T15:29:05.568Z,-0.95
2023-01-29T15:31:50.546Z,-0.84
2023-01-29T15:34:35.810Z,-0.76
2023-01-29T15:37:20.497Z,-0.78
2023-01-29T15:40:05.294Z,-0.79
2023-01-29T15:42:49.933Z,-0.81
2023-01-29T15:45:34.743Z,-0.87
2023-01-29T15:48:19.536Z,-0.88
2023-01-29T15:51:04.356Z,-0.88
2023-01-29T15:53:48.969Z,-0.88
2023-01-29T15:56:33.892Z,-0.95
2023-01-29T15:59:18.716Z,-1.07
2023-01-29T16:02:03.575Z,-1.05
2023-01-29T16:04:48.450Z,-1.05
2023-01-29T16:07:33.075Z,-1.06
2023-01-29T16:10:17.934Z,-1.12
2023-01-29T16:13:02.706Z,-1.05
2023-01-29T16:15:47.720Z,-1.06
2023-01-29T16:18:34.494Z,-1.08
2023-01-29T16:21:20.164Z,-1.11
2023-01-29T16:24:05.128Z,-1.16
2023-01-29T16:26:49.876Z,-1.22
2023-01-29T16:29:34.695Z,-1.31
2023-01-29T16:32:19.394Z,-1.38
2023-01-29T16:35:04.171Z,-1.46
2023-01-29T16:37:48.760Z,-1.36
2023-01-29T16:40:33.520Z,-1.43
2023-01-29T16:43:18.286Z,-1.50
2023-01-29T16:46:03.023Z,-1.51
2023-01-29T16:48:47.810Z,-1.50
2023-01-29T16:51:33.145Z,-1.53
2023-01-29T16:54:17.826Z,-1.58
2023-01-29T16:57:02.553Z,-1.58
2023-01-29T16:59:47.422Z,-1.60
2023-01-29T17:02:32.046Z,-1.59
2023-01-29T17:05:17.116Z,-1.56
2023-01-29T17:08:02.167Z,-1.66
2023-01-29T17:10:46.783Z,-1.71
2023-01-29T17:13:31.513Z,-1.81
2023-01-29T17:16:16.368Z,-1.84
2023-01-29T17:19:01.144Z,-1.74
2023-01-29T17:21:45.837Z,-1.69
2023-01-29T17:24:30.613Z,-1.59
2023-01-29T17:27:15.510Z,-1.53
2023-01-29T17:30:00.352Z,-1.49
2023-01-29T17:32:47.437Z,-1.50
2023-01-29T17:35:33.280Z,-1.54
2023-01-29T17:38:26.006Z,-1.59
2023-01-29T17:41:11.718Z,-1.57
2023-01-29T17:43:56.422Z,-1.64
2023-01-29T17:46:41.647Z,-1.57
2023-01-29T17:49:26.327Z,-1.48
2023-01-29T17:52:11.037Z,-1.39
2023-01-29T17:54:55.808Z,-1.45
2023-01-29T17:57:40.699Z,-1.50
2023-01-29T18:00:25.484Z,-1.45
2023-01-29T18:03:10.302Z,-1.44
2023-01-29T18:05:55.281Z,-1.59
2023-01-29T18:08:39.939Z,-1.77
2023-01-29T18:11:24.685Z,-1.98
2023-01-29T18:14:13.521Z,-2.23
2023-01-29T18:16:59.297Z,-2.44
2023-01-29T18:19:44.078Z,-2.58
2023-01-29T18:22:28.869Z,-2.67
2023-01-29T18:25:13.717Z,-2.55
2023-01-29T18:27:58.418Z,-2.48
2023-01-29T18:30:43.484Z,-2.41
2023-01-29T18:33:28.564Z,-2.35
2023-01-29T18:36:13.374Z,-2.47
2023-01-29T18:38:58.195Z,-2.63
2023-01-29T18:41:42.985Z,-2.72
2023-01-29T18:44:27.769Z,-2.82
2023-01-29T18:47:12.400Z,-2.87
2023-01-29T18:49:57.223Z,-2.80
2023-01-29T18:52:41.958Z,-2.69
2023-01-29T18:55:26.911Z,-2.70
2023-01-29T18:58:29.578Z,-2.64
2023-01-29T19:01:16.525Z,-2.59
2023-01-29T19:04:01.380Z,-2.50
2023-01-29T19:06:46.034Z,-2.49
2023-01-29T19:09:30.854Z,-2.62
2023-01-29T19:12:15.587Z,-2.55
2023-01-29T19:15:00.395Z,-2.45
2023-01-29T19:17:45.299Z,-2.43
2023-01-29T19:20:30.093Z,-2.50
2023-01-29T19:23:14.961Z,-2.41
2023-01-29T19:25:59.825Z,-2.42
2023-01-29T19:28:44.704Z,-2.43
2023-01-29T19:31:29.317Z,-2.62
2023-01-29T19:34:14.210Z,-2.77
2023-01-29T19:36:58.915Z,-2.77
2023-01-29T19:39:43.814Z,-2.72
2023-01-29T19:42:28.644Z,-2.86
2023-01-29T19:45:13.379Z,-3.00
2023-01-29T19:47:58.129Z,-3.08
2023-01-29T19:50:42.723Z,-3.02
2023-01-29T19:53:27.511Z,-3.01
2023-01-29T19:56:12.127Z,-2.99
2023-01-29T19:58:57.160Z,-3.16
2023-01-29T20:01:41.924Z,-3.16
2023-01-29T20:04:26.760Z,-3.24
2023-01-29T20:07:11.473Z,-3.12
2023-01-29T20:09:56.893Z,-3.06
2023-01-29T20:12:41.587Z,-3.03
2023-01-29T20:15:26.392Z,-2.98
2023-01-29T20:18:11.089Z,-3.01
2023-01-29T20:20:55.757Z,-2.91
2023-01-29T20:23:40.635Z,-2.92
2023-01-29T20:26:25.630Z,-2.86
2023-01-29T20:29:10.572Z,-2.87
2023-01-29T20:31:55.268Z,-2.87
2023-01-29T20:34:40.117Z,-2.80
2023-01-29T20:37:24.801Z,-2.82
2023-01-29T20:40:09.555Z,-2.93
2023-01-29T20:42:54.919Z,-2.93
2023-01-29T20:45:39.636Z,-2.89
2023-01-29T20:48:24.541Z,-2.95
2023-01-29T20:51:09.257Z,-3.02
2023-01-29T20:53:54.566Z,-2.97
2023-01-29T20:56:45.446Z,-3.02
2023-01-29T20:59:31.460Z,-2.97
2023-01-29T21:02:16.165Z,-2.95
2023-01-29T21:05:00.827Z,-2.91
2023-01-29T21:07:45.736Z,-2.91
2023-01-29T21:10:30.600Z,-2.83
2023-01-29T21:13:15.411Z,-2.89
2023-01-29T21:16:00.298Z,-2.88
2023-01-29T21:18:45.103Z,-2.92
2023-01-29T21:21:30.062Z,-2.94
2023-01-29T21:24:14.644Z,-2.95
2023-01-29T21:26:59.586Z,-2.91
2023-01-29T21:29:44.405Z,-2.94
2023-01-29T21:32:29.215Z,-2.99
2023-01-29T21:35:14.068Z,-3.04
2023-01-29T21:37:58.750Z,-2.98
2023-01-29T21:40:43.589Z,-2.83
2023-01-29T21:43:28.230Z,-2.81
2023-01-29T21:46:13.386Z,-2.75
2023-01-29T21:48:58.461Z,-2.72
2023-01-29T21:51:43.370Z,-2.75
2023-01-29T21:54:28.150Z,-2.86
2023-01-29T21:57:13.166Z,-2.98
2023-01-29T21:59:57.834Z,-3.08
2023-01-29T22:02:42.585Z,-3.03
2023-01-29T22:05:27.188Z,-2.99
2023-01-29T22:08:11.988Z,-2.89
2023-01-29T22:10:56.829Z,-2.84
2023-01-29T22:13:41.521Z,-2.71
2023-01-29T22:16:26.560Z,-2.68
2023-01-29T22:19:11.127Z,-2.70
2023-01-29T22:21:56.042Z,-2.78
2023-01-29T22:24:40.808Z,-2.86
2023-01-29T22:27:25.578Z,-2.84
2023-01-29T22:30:10.252Z,-2.75
2023-01-29T22:32:54.936Z,-2.74
2023-01-29T22:35:39.707Z,-2.82
2023-01-29T22:38:24.514Z,-2.71
2023-01-29T22:41:09.387Z,-2.73
2023-01-29T22:43:54.092Z,-2.79
2023-01-29T22:46:39.128Z,-2.80
2023-01-29T22:49:24.039Z,-2.72
2023-01-29T22:52:09.444Z,-2.67
2023-01-29T22:54:54.301Z,-2.71
2023-01-29T22:57:39.128Z,-2.77
2023-01-29T23:00:24.023Z,-2.78
2023-01-29T23:03:08.808Z,-2.77
2023-01-29T23:05:53.630Z,-2.74
2023-01-29T23:08:38.264Z,-2.70
2023-01-29T23:11:23.108Z,-2.68
2023-01-29T23:14:07.821Z,-2.62
2023-01-29T23:16:52.520Z,-2.66
2023-01-29T23:19:37.326Z,-2.70
2023-01-29T23:22:22.138Z,-2.80
2023-01-29T23:25:06.884Z,-2.84
2023-01-29T23:27:51.801Z,-2.87
2023-01-29T23:30:36.577Z,-2.93
2023-01-29T23:33:21.916Z,-2.91
2023-01-29T23:36:06.731Z,-2.86
2023-01-29T23:38:51.516Z,-2.74
2023-01-29T23:41:36.298Z,-2.57
2023-01-29T23:44:20.902Z,-2.49
2023-01-29T23:47:05.585Z,-2.52
2023-01-29T23:49:50.427Z,-2.64
2023-01-29T23:52:35.100Z,-2.83
2023-01-29T23:55:19.824Z,-3.05
2023-01-29T23:58:04.608Z,-3.09
